Watertown, WI

1:28 AM CST on November 29, 2014 (GMT -0600)
K9LUK's Station | Change Station
CLOSE
Current Station
Personal Weather Station
Location: Watertown, WI
Elevation: 834 ft
Nearby Weather Stations

Elev 834 ft 43.20 °N, 88.75 °W | Updated 53 seconds ago

Mostly Cloudy
Mostly Cloudy
29.7 °F
Feels Like 30 °F
N
0.0
Wind Variable Wind from SE
Gusts 0.0 mph

Today
High -- | Low -- °F
--% Chance of Precip.
Yesterday
High -- | Low -- °F
Precip. -- in
7:04 AM 4:21 PM
Waxing Crescent, 49% visible
Pressure 29.78 in
Visibility 5.0 miles
Clouds Clear
Windchill 30 °F
Dew Point 28 °F
Humidity 92%
Rainfall 0.00 in
Snow Depth Not available.
UV 0 out of 12
Pollen .10 out of 12
Air Quality Not available.
Flu Activity Not available.
METAR KRYV 290715Z AUTO 10005KT 5SM BR CLR M02/M02 A2978 RMK AO2 T10201020

More Conditions Fewer Conditions

Pressure 29.78 in
Visibility 5.0 miles
Clouds Clear
Windchill 30 °F
Dew Point 28 °F
Humidity 92%
Rainfall 0.00 in
Snow Depth Not available.
UV 0 out of 12
Pollen .10 out of 12
Air Quality Not available.
Flu Activity Not available.
METAR KRYV 290715Z AUTO 10005KT 5SM BR CLR M02/M02 A2978 RMK AO2 T10201020

More Conditions Fewer Conditions

10-Day Weather Forecast

Almanac

Astronomy

Nov. 29, 2014 Rise Set
Actual Time
Civil Twilight
Nautical Twilight
Astronomical Twilight
Moon
Length of Visible Light
Length of Day
Tomorrow will be .
, % of the Moon is Illuminated

Today's Extremes

State Highs State Lows

Community

WunderPhotos

Upload Photos

1,774,432 photos uploaded!

WunderBlogs® & News

Nearby

Air Quality

  Air Quality AQ Index Pollutant
Not available.

Snow Depth

Station Depth Elevation

Earthquake Activity

City Distance Mag. Time & Date
Minimum magnitude displayed is 2.5.

Coastal Water Temperatures

Place Temperature

Nearby Weather Stations